Latest Coastal Weather Observations for Sydney Airport

IDN60701

Issued at 4:02 pm EST Tuesday 4 August 2020 (issued every 10 minutes, with the page automatically refreshed every 10 minutes)

About coastal observations | Map of coastal stations | Coastal observations for NSW | Marine services | Other Formats
Station Details ID: 066037 Name: SYDNEY AIRPORT AMO Lat: -33.95 Lon: 151.17 Height: 6.0 m
Data from the previous 72 hours. | See also: Recent months at Sydney Airport
Date/Time
EST
Wind Sea
Height
m
Swell Vis
km
Cloud Weather Temp
°C
Press
hPa
Rain since
9am
mm
Dir  Spd
kts
Gust
kts
Height
m
Period
s
Dir
04/03:30pm WNW 15 22 - - - - 10 - - 22.2 1007.5 0.0
04/03:00pm NW 10 14 - - - - 25 Mostly cloudy Fine 21.6 1007.5 0.0
04/02:30pm NW 13 17 - - - - 10 - - 21.3 1007.6 0.0
04/02:00pm NW 13 17 - - - - 10 - - 21.6 1007.7 0.0
04/01:30pm WNW 15 21 - - - - 10 - - 21.1 1007.8 0.0
04/01:00pm NW 13 18 - - - - 10 - - 20.6 1008.1 0.0
04/12:30pm NW 13 19 - - - - 10 - - 20.1 1008.5 0.0
04/12:00pm NW 10 15 - - - - 25 Mostly cloudy Fine 20.5 1009.2 0.0
04/11:30am NW 11 15 - - - - 10 - - 20.2 1009.9 0.0
04/11:00am NW 10 15 - - - - 10 - - 19.9 1010.6 0.0
04/10:30am NNW 10 14 - - - - 10 - - 19.0 1011.0 0.0
04/10:00am NNW 10 14 - - - - 10 - - 17.8 1011.4 0.0
04/09:30am NNW 7 10 - - - - 10 - - 16.5 1011.8 0.0
04/09:00am N 4 6 - - - - 25 Mostly clear Fine 14.6 1011.8 0.0
04/08:30am N 9 10 - - - - 10 - - 12.7 1011.8 0.0
04/08:00am N 5 7 - - - - 10 - - 11.6 1012.0 0.0
04/07:30am N 5 7 - - - - 10 - - 10.3 1012.2 0.0
04/07:00am NW 7 8 - - - - 10 - - 9.5 1012.2 0.0
04/06:30am WNW 6 7 - - - - 10 - - 9.0 1012.2 0.0
04/06:00am WSW 7 8 - - - - 25 Mostly clear Fine 9.3 1012.4 0.0
04/05:30am W 7 9 - - - - 10 - - 9.6 1012.4 0.0
04/05:00am WNW 11 14 - - - - 10 - - 9.2 1012.4 0.0
04/04:30am WNW 9 11 - - - - 10 - - 10.1 1012.2 0.0
04/04:00am WNW 7 9 - - - - 10 - - 10.6 1012.4 0.0
04/03:30am WNW 6 7 - - - - 10 - - 10.1 1012.5 0.0
04/03:00am NW 5 6 - - - - 25 Mostly cloudy Fine 10.6 1012.7 0.0
04/02:30am WNW 5 6 - - - - 10 - - 10.8 1012.9 0.0
04/02:00am WNW 7 8 - - - - 10 - - 11.6 1013.3 0.0
04/01:30am NNW 6 7 - - - - 10 - - 11.5 1013.6 0.0
04/01:00am WNW 6 8 - - - - 10 - - 12.1 1014.0 0.0
04/12:30am NW 7 9 - - - - 10 - - 12.9 1014.1 0.0
04/12:00am WNW 7 9 - - - - 30 Mostly cloudy Fine 13.4 1014.4 0.0
 
Date/Time
EST
Wind Sea
Height
m
Swell Vis
km
Cloud Weather Temp
°C
Press
hPa
Rain since
9am
mm
Dir  Spd
kts
Gust
kts
Height
m
Period
s
Dir
03/11:30pm NW 7 8 - - - - 10 - - 14.1 1014.6 0.0
03/11:00pm N 6 8 - - - - 10 - - 14.4 1014.8 0.0
03/10:30pm NW 6 9 - - - - 10 - - 14.6 1014.8 0.0
03/10:00pm WNW 7 10 - - - - 10 - - 14.9 1014.9 0.0
03/09:30pm NW 6 7 - - - - 10 - - 15.1 1015.0 0.0
03/09:00pm NNW 6 7 - - - - 25 Mostly cloudy Fine 15.4 1015.0 0.0
03/08:30pm WSW 1 4 - - - - 10 - - 15.9 1015.2 0.0
03/08:00pm W 2 6 - - - - 10 - - 16.4 1015.1 0.0
03/07:30pm W 5 6 - - - - 10 - - 16.5 1015.0 0.0
03/07:00pm CALM 0 0 - - - - 10 - - 16.0 1014.8 0.0
03/06:30pm CALM 0 0 - - - - 10 - - 15.6 1014.7 0.0
03/06:00pm ESE 3 4 - - - - 30 Mostly cloudy Fine 16.1 1014.6 0.0
03/05:30pm CALM 0 0 - - - - 10 - - 15.6 1014.5 0.0
03/05:00pm CALM 0 1 - - - - 10 - - 17.1 1014.3 0.0
03/04:30pm ESE 3 4 - - - - 10 - - 18.6 1014.2 0.0
03/04:00pm E 5 5 - - - - 10 - - 19.4 1014.3 0.0
03/03:30pm SSE 4 6 - - - - 10 - - 21.1 1014.5 0.0
03/03:00pm SSW 4 5 - - - - 30 Mostly cloudy Fine 21.1 1014.7 0.0
03/02:30pm NW 8 10 - - - - 10 - - 20.8 1014.8 0.0
03/02:00pm NW 6 8 - - - - 10 - - 20.7 1015.0 0.0
03/01:30pm NW 7 8 - - - - 10 - - 20.3 1015.5 0.0
03/01:00pm NW 6 8 - - - - 10 - - 19.6 1015.9 0.0
03/12:30pm NW 8 10 - - - - 10 - - 19.0 1016.8 0.0
03/12:00pm NNW 9 11 - - - - 25 Mostly cloudy Haze 18.1 1017.4 0.0
03/11:30am NW 8 10 - - - - 10 - - 17.1 1018.0 0.0
03/11:00am NW 8 10 - - - - 10 - - 16.2 1018.7 0.0
03/10:30am NW 9 12 - - - - 10 - - 15.4 1019.4 0.0
03/10:00am WNW 10 14 - - - - 10 - - 14.0 1019.7 0.0
03/09:30am NW 9 11 - - - - 10 - - 13.5 1019.9 0.0
03/09:00am WNW 8 12 - - - - 25 Mostly cloudy Fine 12.1 1020.3 0.0
03/08:30am NW 9 10 - - - - 10 - - 11.0 1020.5 0.0
03/08:00am NW 9 11 - - - - 10 - - 9.9 1020.4 0.0
03/07:30am NW 9 12 - - - - 10 - - 9.5 1020.4 0.0
03/07:00am NW 9 11 - - - - 10 - - 8.7 1020.3 0.0
03/06:30am NW 9 11 - - - - 10 - - 8.4 1020.2 0.0
03/06:00am NW 9 11 - - - - 15 Mostly clear Haze 8.3 1019.9 0.0
03/05:30am NW 8 10 - - - - 10 - - 8.4 1019.7 0.0
03/05:00am NNW 7 8 - - - - 10 - - 8.9 1019.6 0.0
03/04:30am NNW 8 9 - - - - 10 - - 8.8 1019.7 0.0
03/04:00am NNW 7 8 - - - - 10 - - 8.8 1020.1 0.0
03/03:30am NNW 7 9 - - - - 10 - - 8.8 1020.3 0.0
03/03:00am NW 7 8 - - - - 18 Clear Haze 8.7 1020.4 0.0
03/02:30am NW 6 7 - - - - 10 - - 9.1 1020.7 0.0
03/02:00am NNW 7 7 - - - - 10 - - 9.7 1021.1 0.0
03/01:30am N 5 6 - - - - 10 - - 10.3 1021.4 0.0
03/01:00am N 5 5 - - - - 10 - - 10.1 1021.6 0.0
03/12:30am NNW 4 5 - - - - 10 - - 10.5 1021.9 0.0
03/12:00am NW 4 5 - - - - 18 Mostly clear Haze 10.8 1022.2 0.0
 
Date/Time
EST
Wind Sea
Height
m
Swell Vis
km
Cloud Weather Temp
°C
Press
hPa
Rain since
9am
mm
Dir  Spd
kts
Gust
kts
Height
m
Period
s
Dir
02/11:30pm CALM 0 0 - - - - 10 - - 11.1 1022.3 0.0
02/11:00pm CALM 0 0 - - - - 10 - - 11.8 1022.3 0.0
02/10:30pm SW 4 5 - - - - 10 - - 12.2 1022.6 0.0
02/10:00pm ENE 3 5 - - - - 10 - - 12.3 1022.8 0.0
02/09:30pm CALM 0 0 - - - - 10 - - 13.3 1022.7 0.0
02/09:00pm CALM 0 0 - - - - 30 Partly cloudy Fine 13.3 1023.0 0.0
02/08:30pm CALM 0 0 - - - - 10 - - 13.9 1023.2 0.0
02/08:00pm CALM 0 0 - - - - 10 - - 14.3 1023.2 0.0
02/07:30pm NE 3 4 - - - - 10 - - 13.9 1023.0 0.0
02/07:00pm CALM 0 2 - - - - 10 - - 14.7 1022.9 0.0
02/06:30pm ENE 4 4 - - - - 10 - - 14.6 1022.9 0.0
02/06:00pm ENE 5 5 - - - - 30 Mostly cloudy Fine 15.0 1022.9 0.0
02/05:30pm E 7 7 - - - - 10 - - 15.0 1022.8 0.0
02/05:00pm ENE 7 8 - - - - 10 - - 15.9 1022.7 0.0
02/04:30pm ENE 7 8 - - - - 10 - - 16.0 1022.6 0.0
02/04:00pm E 7 9 - - - - 10 - - 16.8 1022.6 0.0
02/03:30pm ESE 8 9 - - - - 10 - - 17.8 1022.6 0.0
02/03:00pm SE 9 10 - - - - 40 Partly cloudy Fine 17.8 1022.6 0.0
02/02:30pm SE 7 9 - - - - 10 - - 18.3 1022.6 0.0
02/02:00pm ESE 6 8 - - - - 10 - - 18.3 1022.8 0.0
02/01:30pm ESE 6 8 - - - - 10 - - 17.9 1023.0 0.0
02/01:00pm ESE 6 7 - - - - 10 - - 17.3 1023.4 0.0
02/12:30pm SSW 4 6 - - - - 10 - - 17.0 1023.6 0.0
02/12:00pm WSW 6 9 - - - - 40 Partly cloudy Fine 18.0 1024.2 0.0
02/11:30am W 7 9 - - - - 10 - - 17.7 1024.5 0.0
02/11:00am W 9 10 - - - - 10 - - 15.9 1024.9 0.0
02/10:30am WNW 9 13 - - - - 10 - - 15.4 1025.3 0.0
02/10:00am WNW 10 11 - - - - 10 - - 15.0 1025.5 0.0
02/09:30am W 7 9 - - - - 10 - - 13.6 1025.6 0.0
02/09:00am WNW 8 9 - - - - 30 Mostly clear Fine 12.5 1025.5 0.0
02/08:30am WNW 8 9 - - - - 10 - - 10.6 1025.6 0.0
02/08:00am NNW 5 6 - - - - 10 - - 9.6 1025.5 0.0
02/07:30am NNW 8 9 - - - - 10 - - 8.4 1025.4 0.0
02/07:00am NNW 7 8 - - - - 10 - - 7.6 1024.9 0.0
02/06:30am NNW 7 8 - - - - 10 - - 8.0 1024.6 0.0
02/06:00am NNW 8 9 - - - - 25 Mostly clear Fine 7.9 1024.4 0.0
02/05:30am NNW 6 7 - - - - 10 - - 7.6 1024.1 0.0
02/05:00am NW 7 8 - - - - 10 - - 8.0 1023.8 0.0
02/04:30am NNW 7 8 - - - - 10 - - 8.1 1023.4 0.0
02/04:00am NW 6 7 - - - - 10 - - 8.3 1023.4 0.0
02/03:30am NW 8 9 - - - - 10 - - 8.4 1023.4 0.0
02/03:00am NW 7 8 - - - - 18 Clear Fine 8.6 1023.6 0.0
02/02:30am NW 6 7 - - - - 10 - - 8.7 1023.7 0.0
02/02:00am NNW 8 8 - - - - 10 - - 9.1 1023.7 0.0
02/01:30am NNW 6 6 - - - - 10 - - 9.8 1023.9 0.0
02/01:00am NNW 4 5 - - - - 10 - - 10.6 1024.1 0.0
02/12:30am NNW 7 7 - - - - 10 - - 10.6 1024.1 0.0
02/12:00am NNW 5 5 - - - - 20 Mostly clear Fine 11.1 1024.3 0.0
 
Date/Time
EST
Wind Sea
Height
m
Swell Vis
km
Cloud Weather Temp
°C
Press
hPa
Rain since
9am
mm
Dir  Spd
kts
Gust
kts
Height
m
Period
s
Dir
01/11:30pm W 4 5 - - - - 10 - - 11.6 1024.4 0.0
01/11:00pm NE 2 4 - - - - 10 - - 11.6 1024.4 0.0
01/10:30pm NW 5 7 - - - - 10 - - 13.2 1024.4 0.0
01/10:00pm WNW 3 4 - - - - 10 - - 12.6 1024.4 0.0
01/09:30pm WNW 4 5 - - - - 10 - - 13.2 1024.4 0.0
01/09:00pm SW 3 4 - - - - 25 Mostly clear Fine 12.8 1024.4 0.0
01/08:30pm N 3 5 - - - - 10 - - 14.2 1024.2 0.0
01/08:00pm N 4 5 - - - - 10 - - 14.9 1024.1 0.0
01/07:30pm NNE 6 7 - - - - 10 - - 15.1 1024.0 0.0
01/07:00pm NNE 6 8 - - - - 10 - - 15.6 1023.9 0.0
01/06:30pm NNE 7 8 - - - - 10 - - 15.5 1023.7 0.0
01/06:00pm NE 9 12 - - - - 30 Mostly clear Fine 15.0 1023.4 0.0
01/05:30pm NE 11 13 - - - - 10 - - 15.6 1023.2 0.0
01/05:00pm NE 9 12 - - - - 10 - - 16.5 1023.0 0.0
01/04:30pm NE 12 14 - - - - 10 - - 17.0 1022.9 0.0

Other formats

Comma delimited format used in spreadsheet applications
http://www.bom.gov.au/fwo/IDN60701/IDN60701.94767.axf

JavaScript Object Notation format (JSON) in row-major order
http://www.bom.gov.au/fwo/IDN60701/IDN60701.94767.json

Data quality

Most of these data are generated automatically and are frequently updated. Quality checks on data are not normally performed. It is possible for incorrect values to appear. Refer to information at About Latest Weather Observations and please check the disclaimer before using these data.